createdAt,value
2023-05-01T00:07:20.451Z,70
2023-05-01T00:17:22.409Z,70
2023-05-01T00:27:24.578Z,71
2023-05-01T00:37:26.539Z,71
2023-05-01T00:47:29.165Z,70
2023-05-01T00:57:31.182Z,70
2023-05-01T01:07:33.633Z,69
2023-05-01T01:17:35.840Z,68
2023-05-01T01:27:38.215Z,68
2023-05-01T01:37:40.168Z,68
2023-05-01T01:47:42.162Z,69
2023-05-01T01:57:44.490Z,69
2023-05-01T02:07:46.196Z,70
2023-05-01T02:17:48.489Z,71
2023-05-01T02:27:50.385Z,71
2023-05-01T02:37:52.710Z,71
2023-05-01T02:47:54.475Z,71
2023-05-01T02:57:56.168Z,71
2023-05-01T03:18:00.574Z,70
2023-05-01T03:28:02.174Z,69
2023-05-01T03:48:06.563Z,69
2023-05-01T03:58:08.857Z,69
2023-05-01T04:08:11.423Z,69
2023-05-01T04:18:13.807Z,69
2023-05-01T04:28:15.870Z,68
2023-05-01T04:38:18.299Z,68
2023-05-01T04:48:20.131Z,68
2023-05-01T05:08:24.889Z,68
2023-05-01T05:18:27.214Z,68
2023-05-01T05:28:29.136Z,68
2023-05-01T05:38:31.775Z,68
2023-05-01T05:48:33.863Z,67
2023-05-01T05:58:35.726Z,67
2023-05-01T06:08:37.439Z,66
2023-05-01T06:18:39.498Z,65
2023-05-01T06:38:44.368Z,64
2023-05-01T06:48:46.554Z,65
2023-05-01T06:58:49.024Z,64
2023-05-01T07:08:50.700Z,64
2023-05-01T07:18:52.659Z,64
2023-05-01T07:28:54.295Z,63
2023-05-01T07:38:56.180Z,63
2023-05-01T07:48:58.402Z,62
2023-05-01T09:09:22.588Z,55
2023-05-01T10:19:37.856Z,49
2023-05-01T10:29:40.450Z,49
2023-05-01T10:39:42.656Z,48
2023-05-01T11:09:48.666Z,44
2023-05-01T11:19:50.570Z,42
2023-05-01T11:29:52.990Z,43
2023-05-01T11:39:55.388Z,44
2023-05-01T11:49:57.898Z,44
2023-05-01T12:00:00.030Z,44
2023-05-01T12:10:01.855Z,44
2023-05-01T12:40:08.213Z,42
2023-05-01T13:10:14.055Z,39
2023-05-01T13:20:16.243Z,39
2023-05-01T13:30:18.646Z,38
2023-05-01T13:40:20.431Z,39
2023-05-01T13:50:22.113Z,37
2023-05-01T14:00:23.873Z,36
2023-05-01T14:10:26.398Z,39
2023-05-01T14:20:28.287Z,41
2023-05-01T14:40:32.863Z,42
2023-05-01T15:10:39.989Z,43
2023-05-01T15:20:41.889Z,45
2023-05-01T15:40:46.010Z,59
2023-05-01T15:50:49.082Z,66
2023-05-01T16:20:54.069Z,74
2023-05-01T17:01:02.663Z,78
2023-05-01T17:21:07.352Z,78
2023-05-01T17:31:09.728Z,77
2023-05-01T17:41:12.291Z,78
2023-05-01T18:51:26.702Z,82
2023-05-01T19:11:31.188Z,83
2023-05-01T19:31:35.208Z,83
2023-05-01T19:51:39.314Z,84
2023-05-01T20:11:42.915Z,84
2023-05-01T21:52:03.525Z,86
2023-05-01T22:12:07.780Z,86
2023-05-01T22:22:09.972Z,86
2023-05-01T22:42:14.125Z,85
2023-05-01T23:22:23.528Z,85
2023-05-01T23:32:25.470Z,84
2023-05-01T23:42:27.121Z,82
2023-05-01T23:52:29.338Z,82
